Tiempo atmosférico en la estación meteorológica de Pedrosillo de Los Aires, Salamanca (865 m.)



Fecha
DESCASC
Temp. máxima en grados centígrados (hora)
DESCASC
Temp. mínima en grados centígrados (hora)
DESCASC
Temp. media en grados centígrados
DESCASC
Racha de viento máxima en m/sg (hora)
DESCASC
Velocidad máxima media en intervalos de 10 minutos(hora)
DESCASC
Precipitaciones diarias en mm
DESCASC
Precipitaciones de 00:00 a 06:00 en mm
DESCASC
Precipitaciones de 06:00 a 12:00 en mm
DESCASC
Precipitaciones de 12:00 a 18:00 en mm
DESCASC
Precipitaciones de 18:00 a 24:00 en mm
DESCASC
16-06-2019 26 (18:00) 3.6 (06:30) 14.8 9.72 (17:10) 5.56 (17:10) 0 0 0 0 0
15-06-2019 23.1 (20:00) 4.3 (07:40) 13.7 5.83 (14:30) 3.61 (16:20) 0 0 0 0 0
14-06-2019 19.4 (16:40) 3.6 (05:50) 11.5 14.72 (17:00) 8.89 (14:00) 0 0 0 0 0
13-06-2019 22.6 (17:50) 2.8 (00:00) 12.7 14.17 (15:10) 8.06 (16:20) 0 0 0 0 0
12-06-2019 22 (18:10) 1.3 (00:00) 11.6 9.72 (18:10) 5.83 (18:10) 0 0 0 0 0
11-06-2019 18.4 (17:10) 9.2 (00:00) 13.8 13.33 (14:10) 7.78 (14:10) 0 0 0 0 0
10-06-2019 22.6 (18:20) 4.5 (00:00) 13.6 8.06 (18:00) 4.72 (19:30) 0 0 0 0 0
09-06-2019 22 (17:10) 4.3 (00:00) 13.2 10.83 (17:30) 6.67 (20:30) 0 0 0 0 0
08-06-2019 23.7 (17:50) 3.1 (00:00) 13.4 10 (17:10) 5.28 (18:30) 0 0 0 0 0
07-06-2019 17.8 (18:30) 5.8 (00:00) 11.8 12.22 (14:30) 6.94 (00:30) 0.4 0.4 0 0 0
06-06-2019 18.6 (17:00) 0.5 (00:00) 9.6 24.44 (21:10) 15.28 (18:40) 3.4 0 0 0 3.4
05-06-2019 17.4 (16:20) 7.1 (00:00) 12.2 11.67 (19:10) 7.22 (11:40) 0 0 0 0 0
04-06-2019 22.6 (15:10) 9.8 (00:00) 16.2 13.89 (16:40) 8.33 (16:50) 0 0 0 0 0
03-06-2019 28.4 (16:40) 11.9 (00:00) 20.1 15 (19:10) 9.17 (19:10) 0 0 0 0 0
02-06-2019 30.4 (15:30) 10.1 (00:00) 20.3 12.22 (16:10) 7.5 (16:10) 0 0 0 0 0
01-06-2019 32 (17:20) 8.8 (00:00) 20.4 11.39 (18:10) 5.83 (20:30) 0 0 0 0 0
31-05-2019 30.6 (18:10) 6.7 (00:00) 18.7 7.22 (18:50) 4.17 (19:30) 0 0 0 0 0
30-05-2019 28.4 (18:10) 5.1 (00:00) 16.7 11.94 (15:10) 6.67 (15:50) 0 0 0 0 0
29-05-2019 23.6 (16:40) 6.7 (00:00) 15.2 12.5 (10:10) 8.89 (10:40) 0 0 0 0 0
28-05-2019 22.9 (18:20) 8 (00:00) 15.4 12.5 (23:59) 8.61 (01:30) 0 0 0 0 0
27-05-2019 26.1 (18:10) 7.2 (00:00) 16.7 10 (14:30) 5 (14:50) 0 0 0 0 0
26-05-2019 24.8 (18:30) 7.1 (00:00) 15.9 11.11 (17:10) 6.94 (16:30) 0 0 0 0 0
25-05-2019 21.1 (18:00) 6.4 (00:00) 13.8 14.72 (12:10) 8.33 (12:40) 0 0 0 0 0
24-05-2019 21.2 (16:40) 10 (00:00) 15.6 12.78 (18:10) 7.78 (11:20) 0 0 0 0 0
23-05-2019 24.9 (17:00) 8.5 (00:00) 16.7 10.28 (17:50) 5.56 (19:50) 0 0 0 0 0
22-05-2019 26 (16:50) 4 (00:00) 15 10.28 (14:00) 5 (16:00) 0 0 0 0 0
21-05-2019 23.3 (17:20) 1.9 (07:20) 12.6 7.5 (15:10) 3.89 (16:10) 0 0 0 0 0

Gráficas

Temp. máximas Temp. mínimas Temp. medias Precipitaciones Rachas de viento máximas Velocidades máximas media en intervalos de 10 minutos

Datos horarios

Fecha y hora oficial Temperatura (ºC) Velocidad del viento (km/h) Dirección del viento Racha (km/h) Dirección de racha Precipitación (mm) Presión (hPa) Tendencia (hPa) Humedad (%)
2019-06-19 23:00:00 17 10 Sudoeste 19 Sudoeste 0 -- -- 63
2019-06-19 22:00:00 18.3 7 Sudoeste 24 Sudoeste 0 -- -- 56
2019-06-19 21:00:00 20.1 19 Sudoeste 31 Sudoeste 0 -- -- 50
2019-06-19 20:00:00 21.8 19 Sudoeste 33 Oeste 0 -- -- 47
2019-06-19 19:00:00 22.4 21 Sudoeste 39 Oeste 0 -- -- 45
2019-06-19 18:00:00 22.6 22 Sudoeste 39 Sudoeste 0 -- -- 44
2019-06-19 17:00:00 21.6 22 Sudoeste 35 Sudoeste 0 -- -- 46
2019-06-19 16:00:00 22 17 Sudoeste 39 Sudoeste 0 -- -- 46
2019-06-19 15:00:00 22 22 Sudoeste -- -- -- -- -- 46
2019-06-19 14:00:00 20.4 22 Sudoeste 33 Sudoeste 0 -- -- 53
2019-06-19 13:00:00 20 18 Sudoeste 37 Sudoeste 0 -- -- 55
2019-06-19 12:00:00 19.3 21 Sudoeste 39 Sudoeste 0 -- -- 57
2019-06-19 11:00:00 17.2 23 Sudoeste 38 Sudoeste 0 -- -- 69
2019-06-19 10:00:00 15.6 21 Sudoeste 34 Sudoeste 0 -- -- 77
2019-06-19 09:00:00 15.6 21 Sudoeste 34 Sudoeste 0 -- -- 80
2019-06-19 08:00:00 13.8 16 Sudoeste 33 Sur 0 -- -- 89
2019-06-19 07:00:00 13.5 16 Sudoeste 30 Sudoeste 0 -- -- 89
2019-06-19 06:00:00 13.7 23 Sudoeste 33 Sudoeste 0 -- -- 87
2019-06-19 05:00:00 13.4 22 Sudoeste 37 Sudoeste 0 -- -- 86
2019-06-19 04:00:00 13.9 20 Sudoeste 31 Sudoeste 0 -- -- 81
2019-06-19 03:00:00 14.7 19 Sudoeste 30 Sudoeste 0 -- -- 74
2019-06-19 02:00:00 15.8 17 Sudoeste 30 Sudoeste 0 -- -- 66
2019-06-19 01:00:00 16.6 17 Sudoeste 26 Sudoeste 0 -- -- 65
2019-06-19 00:00:00 16.6 13 Sudoeste 19 Sudoeste 0 -- -- 70
2019-06-18 23:00:00 17.2 10 Sur 32 Sudoeste 0 -- -- 66
2019-06-18 22:00:00 18.4 22 Sudoeste 49 Sudoeste 0 -- -- 62
2019-06-18 21:00:00 20.2 27 Sudoeste 44 Sudoeste 0 -- -- 56
2019-06-18 20:00:00 20.8 25 Sudoeste -- -- -- -- -- 53
2019-06-18 19:00:00 21.8 24 Sudoeste 63 Sudoeste 0 -- -- 50
2019-06-18 18:00:00 21.8 35 Sudoeste 53 Sudoeste 0 -- -- 49
2019-06-18 17:00:00 21 31 Sudoeste 50 Sudoeste 0 -- -- 54
2019-06-18 16:00:00 21.7 35 Sudoeste 58 Sudoeste 0 -- -- 46
2019-06-18 15:00:00 22.7 31 Sudoeste 55 Sudoeste 0 -- -- 36
2019-06-18 14:00:00 21.9 37 Sudoeste 60 Sudoeste 0 -- -- 36
2019-06-18 13:00:00 21.4 30 Sudoeste 49 Sudoeste 0 -- -- 34
2019-06-18 12:00:00 20.3 27 Sudoeste 46 Sudoeste 0 -- -- 33
2019-06-18 11:00:00 19 23 Sudoeste 37 Sudoeste 0 -- -- 39
2019-06-18 10:00:00 17.5 25 Sudoeste 44 Sudoeste 0 -- -- 42
2019-06-18 09:00:00 16.3 22 Sudoeste 38 Sudoeste 0 -- -- 48
2019-06-18 08:00:00 14.1 12 Sudoeste 30 Sudoeste 0 -- -- 56
2019-06-18 07:00:00 12.9 16 Sudoeste 37 Sudoeste 0 -- -- 64
2019-06-18 06:00:00 13.8 24 Sudoeste 35 Sudoeste 0 -- -- 60
2019-06-18 05:00:00 12.6 11 Sudoeste 18 Sudoeste 0 -- -- 49
2019-06-18 04:00:00 12.5 4 Noroeste 9 Oeste 0 -- -- 52
2019-06-18 03:00:00 14 4 Oeste 9 Oeste 0 -- -- 48
2019-06-18 02:00:00 15.7 3 Noroeste 10 Oeste 0 -- -- 41
2019-06-18 01:00:00 16.9 5 Sudoeste 9 Oeste 0 -- -- 43
2019-06-18 00:00:00 18.3 3 Noroeste 8 Sudeste 0 -- -- 34
2019-06-17 23:00:00 19.9 5 Sur 8 Sudeste 0 -- -- 29
2019-06-17 22:00:00 21.3 3 Sudoeste 13 Oeste 0 -- -- 27
2019-06-17 21:00:00 22.9 9 Oeste 27 Oeste 0 -- -- 22
2019-06-17 20:00:00 24.8 17 Sudoeste 32 Sudoeste 0 -- -- 20
2019-06-17 19:00:00 24.5 21 Sudoeste 45 Sudoeste 0 -- -- 18
2019-06-17 18:00:00 25.9 24 Sudoeste 41 Sudoeste 0 -- -- 25
2019-06-17 17:00:00 25.2 26 Sudoeste 45 Sudoeste 0 -- -- 29
2019-06-17 16:00:00 25.5 20 Sudoeste 45 Sudoeste 0 -- -- 26
2019-06-17 15:00:00 26.5 24 Sudoeste 41 Sudoeste 0 -- -- 26
2019-06-17 14:00:00 25.8 21 Sudoeste 39 Sudoeste 0 -- -- 28
2019-06-17 13:00:00 24.5 16 Sudoeste 32 Sudoeste 0 -- -- 30
2019-06-17 12:00:00 22.9 16 Sudoeste 29 Oeste 0 -- -- 35
2019-06-17 11:00:00 22.3 18 Sudoeste 28 Sudoeste 0 -- -- 34
2019-06-17 10:00:00 19.6 4 Norte 8 Oeste 0 -- -- 40
2019-06-17 09:00:00 13 2 Oeste 7 Sudoeste 0 -- -- 52
2019-06-17 08:00:00 8.2 5 Oeste 9 Sudoeste 0 -- -- 80
2019-06-17 07:00:00 7 5 Sudoeste 8 Oeste 0 -- -- 82
2019-06-17 06:00:00 6.9 3 Oeste 11 Oeste 0 -- -- 80
2019-06-17 05:00:00 7.8 6 Oeste 8 Oeste 0 -- -- 78
2019-06-17 04:00:00 9 4 Oeste 12 Sudoeste 0 -- -- 69
2019-06-17 03:00:00 10 5 Oeste 11 Sur 0 -- -- 64
2019-06-17 02:00:00 11.2 9 Sudoeste 13 Sudoeste 0 -- -- 58
2019-06-17 01:00:00 11.9 8 Oeste 10 Oeste 0 -- -- 56
2019-06-17 00:00:00 14.4 4 Noroeste 10 Oeste 0 -- -- 48
2019-06-16 23:00:00 17.8 5 Oeste 8 Oeste 0 -- -- 39
2019-06-16 22:00:00 21.4 6 Sudoeste 17 Sudoeste 0 -- -- 31
2019-06-16 21:00:00 24.2 11 Oeste 24 Oeste 0 -- -- 27
2019-06-16 20:00:00 25.7 16 Sudoeste 27 Sudoeste 0 -- -- 24
2019-06-16 19:00:00 25.5 18 Sudoeste 35 Oeste 0 -- -- 25
2019-06-16 18:00:00 26 16 Oeste 35 Sudoeste 0 -- -- 24
2019-06-16 17:00:00 25.8 18 Sudoeste 32 Oeste 0 -- -- 23
2019-06-16 16:00:00 25.1 18 Sudoeste 31 Sudoeste 0 -- -- 28
2019-06-16 15:00:00 24.8 14 Oeste 27 Sudoeste 0 -- -- 29
2019-06-16 14:00:00 23.8 15 Oeste 24 Sudoeste 0 -- -- 30
2019-06-16 13:00:00 23.7 9 Sudoeste 21 Sur 0 -- -- 27
2019-06-16 12:00:00 22.5 5 Sudeste 12 Este 0 -- -- 29
2019-06-16 11:00:00 19.9 4 Sudeste 10 Nordeste 0 -- -- 37
2019-06-16 10:00:00 16.8 3 Nordeste 6 Este 0 -- -- 44
2019-06-16 09:00:00 10.5 3 Oeste 6 Oeste 0 -- -- 60
2019-06-16 08:00:00 5.2 6 Noroeste 9 Oeste 0 -- -- 81
2019-06-16 07:00:00 3.8 5 Oeste 9 Sudoeste 0 -- -- 78
2019-06-16 06:00:00 4.4 6 Oeste 10 Sudoeste 0 -- -- 78
2019-06-16 05:00:00 5 9 Oeste 12 Sudoeste 0 -- -- 76
2019-06-16 04:00:00 5.3 6 Oeste 8 Oeste 0 -- -- 73
2019-06-16 03:00:00 6.9 6 Oeste 9 Oeste 0 -- -- 70
2019-06-16 02:00:00 7.8 5 Sudoeste 9 Oeste 0 -- -- 63
2019-06-16 01:00:00 10.2 3 Oeste 9 Oeste 0 -- -- 55
2019-06-16 00:00:00 12.1 6 Oeste 11 Noroeste 0 -- -- 54
2019-06-15 23:00:00 15.5 2 Norte 9 Oeste 0 -- -- 41
2019-06-15 22:00:00 18.6 7 Noroeste 12 Noroeste 0 -- -- 34
2019-06-15 21:00:00 21.5 6 Norte 17 Noroeste 0 -- -- 28
2019-06-15 20:00:00 23.1 5 Noroeste 15 Noroeste 0 -- -- 24
2019-06-15 19:00:00 23 8 Noroeste 21 Noroeste 0 -- -- 26
2019-06-15 18:00:00 22.1 10 Noroeste 20 Noroeste 0 -- -- 28
2019-06-15 17:00:00 21.9 10 Sudoeste 21 Norte 0 -- -- 29
2019-06-15 16:00:00 20.5 5 Este 19 Oeste 0 -- -- 32
2019-06-15 15:00:00 20 8 Nordeste 21 Norte 0 -- -- 34
2019-06-15 14:00:00 18.2 8 Oeste 16 Sudeste 0 -- -- 38
2019-06-15 13:00:00 16.9 4 Oeste 19 Nordeste 0 -- -- 46
2019-06-15 12:00:00 15.5 8 Nordeste 15 Norte 0 -- -- 52
2019-06-15 11:00:00 13.7 5 Norte 12 Norte 0 -- -- 57
2019-06-15 10:00:00 11.5 6 Norte 12 Norte 0 -- -- 67
2019-06-15 09:00:00 8.9 2 Noroeste 8 Oeste 0 -- -- 81
2019-06-15 08:00:00 5 6 Oeste 10 Oeste 0 -- -- 92
2019-06-15 07:00:00 4.9 4 Sudoeste 6 Sudoeste 0 -- -- 91
2019-06-15 06:00:00 5.2 4 Oeste 10 Sur 0 -- -- 88
2019-06-15 05:00:00 6.7 5 Sudoeste 14 Oeste 0 -- -- 85
2019-06-15 04:00:00 7.4 8 Sudoeste 16 Noroeste 0 -- -- 81
2019-06-15 03:00:00 7.9 2 Noroeste 11 Noroeste 0 -- -- 79
2019-06-15 02:00:00 8.9 3 Oeste 14 Sudoeste 0 -- -- 75
2019-06-15 01:00:00 10.8 9 Sudoeste 16 Oeste 0 -- -- 68
2019-06-15 00:00:00 11.8 9 Oeste 23 Oeste 0 -- -- 62
2019-06-14 23:00:00 12.6 17 Oeste 37 Oeste 0 -- -- 56
2019-06-14 22:00:00 13.9 18 Oeste 33 Oeste 0 -- -- 47
2019-06-14 21:00:00 15.3 18 Oeste 39 Oeste 0 -- -- 45
2019-06-14 20:00:00 16.9 17 Oeste 45 Sudoeste 0 -- -- 42
2019-06-14 19:00:00 17.8 22 Sudoeste 39 Sudoeste 0 -- -- 40
2019-06-14 18:00:00 19.2 23 Sudoeste 42 Sudoeste 0 -- -- 37
2019-06-14 17:00:00 19.4 22 Sudoeste 53 Sudoeste 0 -- -- 36
2019-06-14 16:00:00 19.1 22 Sudoeste 52 Sudoeste 0 -- -- 36
2019-06-14 15:00:00 18.4 30 Sudoeste 47 Sudoeste 0 -- -- 31
2019-06-14 14:00:00 17.4 32 Sudoeste 46 Sudoeste 0 -- -- 38
2019-06-14 13:00:00 17 29 Sudoeste 48 Sudoeste 0 -- -- 41
2019-06-14 12:00:00 16.2 28 Sudoeste 43 Sudoeste 0 -- -- 46
2019-06-14 11:00:00 16.2 22 Sudoeste 37 Sudoeste 0 -- -- 44
2019-06-14 10:00:00 14.5 10 Sudoeste 20 Oeste 0 -- -- 49
2019-06-14 09:00:00 11.2 2 Este 9 Sudoeste 0 -- -- 70
2019-06-14 08:00:00 5.4 2 Sudoeste 8 Oeste 0 -- -- 84
2019-06-14 07:00:00 4.5 5 Sudoeste 15 Sudoeste 0 -- -- 86
2019-06-14 06:00:00 3.9 10 Sudoeste 14 Sudoeste 0 -- -- 85
2019-06-14 05:00:00 4.5 9 Sudoeste 11 Sudoeste 0 -- -- 79
2019-06-14 04:00:00 5.4 8 Oeste 14 Sudoeste 0 -- -- 75
2019-06-14 03:00:00 7.3 8 Sudoeste 10 Oeste 0 -- -- 68
2019-06-14 02:00:00 10 5 Sudoeste 10 Oeste 0 -- -- 59
2019-06-14 01:00:00 12.2 7 Noroeste 17 Oeste 0 -- -- 54
2019-06-14 00:00:00 13.4 11 Noroeste 18 Noroeste 0 -- -- 50
2019-06-13 23:00:00 14.3 11 Oeste 18 Noroeste 0 -- -- 43
2019-06-13 22:00:00 17.8 11 Sudoeste 22 Sudoeste 0 -- -- 29
2019-06-13 21:00:00 20.6 14 Sudoeste 33 Sur 0 -- -- 22
2019-06-13 20:00:00 21.6 21 Sudoeste 38 Oeste 0 -- -- 20
2019-06-13 19:00:00 21.9 24 Sudoeste 38 Sudoeste 0 -- -- 20
2019-06-13 18:00:00 22.4 21 Sudoeste 42 Sudoeste 0 -- -- 21
2019-06-13 17:00:00 22.1 28 Sudoeste 49 Sudoeste 0 -- -- 20
2019-06-13 16:00:00 21.8 26 Sudoeste 51 Sudoeste 0 -- -- 21
2019-06-13 15:00:00 21.7 23 Sudoeste 44 Sudoeste 0 -- -- 22
2019-06-13 14:00:00 20.8 20 Sudoeste 35 Sudoeste 0 -- -- 24
2019-06-13 13:00:00 19.3 18 Sudoeste 28 Sudoeste 0 -- -- 31
2019-06-13 12:00:00 17.7 5 Oeste 18 Noroeste 0 -- -- 36
2019-06-13 11:00:00 15.4 5 Nordeste 13 Norte 0 -- -- 47
2019-06-13 10:00:00 12.8 6 Norte 13 Sudoeste 0 -- -- 57
2019-06-13 09:00:00 9.3 4 Sudoeste 8 Oeste 0 -- -- 69
2019-06-13 08:00:00 5.3 2 Oeste 9 Oeste 0 -- -- 80
2019-06-13 07:00:00 3.2 5 Sudoeste 11 Oeste 0 -- -- 81
2019-06-13 06:00:00 2.8 4 Sudoeste 9 Sudoeste 0 -- -- 72
2019-06-13 05:00:00 3.3 8 Oeste 15 Sudoeste 0 -- -- 69
2019-06-13 04:00:00 4.2 6 Oeste 23 Sudoeste 0 -- -- 64
2019-06-13 03:00:00 4.9 8 Sudoeste 14 Sudoeste 0 -- -- 62
2019-06-13 02:00:00 6.3 6 Oeste 11 Oeste 0 -- -- 64
2019-06-13 01:00:00 8.7 4 Noroeste 9 Sudoeste 0 -- -- 48
2019-06-13 00:00:00 11.8 3 Sudoeste 17 Noroeste 0 -- -- 40
2019-06-12 23:00:00 13.8 9 Oeste 15 Noroeste 0 -- -- 36
2019-06-12 22:00:00 17.2 8 Oeste 31 Sudoeste 0 -- -- 28
2019-06-12 21:00:00 20.1 14 Sudoeste 28 Oeste 0 -- -- 23
2019-06-12 20:00:00 21.3 18 Sudoeste 31 Sudoeste 0 -- -- 22
2019-06-12 19:00:00 21.7 17 Sudoeste 35 Sudoeste 0 -- -- 22
2019-06-12 18:00:00 21.9 14 Sudoeste 34 Sudoeste 0 -- -- 24
2019-06-12 17:00:00 21.4 13 Sudoeste 29 Sudoeste 0 -- -- 25
2019-06-12 16:00:00 20.7 16 Sudoeste 32 Sudoeste 0 -- -- 24
2019-06-12 15:00:00 19.8 17 Sudoeste 29 Oeste 0 -- -- 24
2019-06-12 14:00:00 18.6 17 Oeste 34 Oeste 0 -- -- 25
2019-06-12 13:00:00 16.4 6 Noroeste 24 Nordeste 0 -- -- 39
2019-06-12 12:00:00 14.7 11 Nordeste 22 Nordeste 0 -- -- 43
2019-06-12 11:00:00 12.7 14 Nordeste 27 Nordeste 0 -- -- 48
2019-06-12 10:00:00 10.6 19 Nordeste 26 Nordeste 0 -- -- 55
2019-06-12 09:00:00 8.4 9 Nordeste 15 Nordeste 0 -- -- 61
2019-06-12 08:00:00 3.6 0 Calma 9 Oeste 0 -- -- 79
2019-06-12 07:00:00 1.3 3 Noroeste 8 Norte 0 -- -- 85
2019-06-12 06:00:00 2.2 4 Norte 6 Norte 0 -- -- 80
2019-06-12 05:00:00 4.1 0 Calma 6 Sudoeste 0 -- -- 72
2019-06-12 04:00:00 5.9 3 Norte 4 Oeste 0 -- -- 66
2019-06-12 03:00:00 5.2 0 Calma 11 Norte 0 -- -- 69
2019-06-12 02:00:00 5.4 2 Norte 9 Oeste 0 -- -- 62
2019-06-12 01:00:00 7.1 3 Nordeste 6 Norte 0 -- -- 57
2019-06-12 00:00:00 9.2 2 Noroeste 8 Nordeste 0 -- -- 48
2019-06-11 23:00:00 12 7 Nordeste 17 Nordeste 0 -- -- 42
2019-06-11 22:00:00 13.8 12 Nordeste 26 Norte 0 -- -- 34
2019-06-11 21:00:00 16.7 15 Nordeste 30 Nordeste 0 -- -- 27
2019-06-11 20:00:00 17.8 20 Nordeste 34 Nordeste 0 -- -- 26
2019-06-11 19:00:00 18.2 17 Nordeste 37 Nordeste 0 -- -- 26
2019-06-11 18:00:00 18.3 24 Nordeste 39 Nordeste 0 -- -- 24
2019-06-11 17:00:00 18.2 21 Nordeste 42 Nordeste 0 -- -- 26
2019-06-11 16:00:00 17.7 20 Nordeste 42 Norte 0 -- -- 28
2019-06-11 15:00:00 17.1 19 Nordeste 48 Nordeste 0 -- -- 32
2019-06-11 14:00:00 15.3 23 Nordeste 44 Nordeste 0 -- -- 39
2019-06-11 13:00:00 15 24 Nordeste 37 Nordeste 0 -- -- 44
2019-06-11 12:00:00 13.6 21 Nordeste 36 Nordeste 0 -- -- 53
2019-06-11 11:00:00 11.4 24 Nordeste 33 Nordeste 0 -- -- 62
2019-06-11 10:00:00 11.4 22 Nordeste 29 Nordeste 0 -- -- 65
2019-06-11 09:00:00 11.4 19 Nordeste 29 Nordeste 0 -- -- 64
2019-06-11 08:00:00 10.9 15 Nordeste 23 Nordeste 0 -- -- 68
2019-06-11 07:00:00 10.3 9 Nordeste 15 Norte 0 -- -- 71
2019-06-11 06:00:00 11.1 10 Norte 15 Norte 0 -- -- 66
2019-06-11 05:00:00 11.2 7 Noroeste 14 Noroeste 0 -- -- 67
2019-06-11 04:00:00 11.1 5 Sudoeste 8 Oeste 0 -- -- 68
2019-06-11 03:00:00 11.3 4 Sudoeste 24 Noroeste 0 -- -- 67
2019-06-11 02:00:00 12.8 12 Noroeste 22 Oeste 0 -- -- 61
2019-06-11 01:00:00 14.2 16 Noroeste 25 Noroeste 0 -- -- 57
2019-06-11 00:00:00 14.9 8 Noroeste 23 Noroeste 0 -- -- 53
2019-06-10 23:00:00 14.4 8 Oeste 15 Oeste 0 -- -- 43
2019-06-10 22:00:00 17.3 5 Oeste 23 Noroeste 0 -- -- 29
2019-06-10 21:00:00 20.3 14 Noroeste 28 Noroeste 0 -- -- 23
2019-06-10 20:00:00 21.4 16 Noroeste 27 Oeste 0 -- -- 23
2019-06-10 19:00:00 22.3 14 Noroeste 27 Noroeste 0 -- -- 25
2019-06-10 18:00:00 22.5 11 Oeste 29 Oeste 0 -- -- 26
2019-06-10 17:00:00 22.3 9 Oeste 23 Noroeste 0 -- -- 27
2019-06-10 16:00:00 21.5 10 Noroeste 22 Noroeste 0 -- -- 30
2019-06-10 15:00:00 20.5 7 Sudeste 21 Nordeste 0 -- -- 34
2019-06-10 14:00:00 19.3 11 Sudeste 23 Nordeste 0 -- -- 42
2019-06-10 13:00:00 18.6 8 Este 16 Este 0 -- -- 45
2019-06-10 12:00:00 16.9 8 Nordeste 20 Este 0 -- -- 50
2019-06-10 11:00:00 15.1 10 Nordeste 19 Nordeste 0 -- -- 62
2019-06-10 10:00:00 12.6 9 Nordeste 15 Nordeste 0 -- -- 73
2019-06-10 09:00:00 10.1 9 Nordeste 13 Nordeste 0 -- -- 81
2019-06-10 08:00:00 5.8 2 Noroeste 8 Oeste 0 -- -- 93
2019-06-10 07:00:00 4.5 5 Oeste 7 Oeste 0 -- -- 90
2019-06-10 06:00:00 5.8 3 Sudoeste 5 Oeste 0 -- -- 87
2019-06-10 05:00:00 7.3 0 Calma 9 Norte 0 -- -- 84
2019-06-10 04:00:00 8.3 8 Noroeste 12 Noroeste 0 -- -- 80
2019-06-10 03:00:00 8.8 5 Norte 9 Oeste 0 -- -- 78
2019-06-10 02:00:00 10.4 6 Oeste 13 Noroeste 0 -- -- 71
2019-06-10 01:00:00 12.2 4 Oeste 19 Noroeste 0 -- -- 64
2019-06-10 00:00:00 13.7 8 Noroeste 16 Noroeste 0 -- -- 59
2019-06-09 23:00:00 14.6 6 Norte 21 Noroeste 0 -- -- 53
2019-06-09 22:00:00 16.2 10 Noroeste 33 Noroeste 0 -- -- 48
2019-06-09 21:00:00 18.8 15 Noroeste 38 Oeste 0 -- -- 37
2019-06-09 20:00:00 20 23 Noroeste 37 Noroeste 0 -- -- 34
2019-06-09 19:00:00 20.7 20 Noroeste 36 Oeste 0 -- -- 33
2019-06-09 18:00:00 21.8 19 Oeste 39 Oeste 0 -- -- 31
2019-06-09 17:00:00 21.9 21 Oeste 37 Oeste 0 -- -- 31
2019-06-09 16:00:00 21.1 17 Noroeste 35 Noroeste 0 -- -- 32
2019-06-09 15:00:00 21.2 16 Oeste 32 Oeste 0 -- -- 32
2019-06-09 14:00:00 20.3 11 Oeste 26 Oeste 0 -- -- 37
2019-06-09 13:00:00 18.8 8 Norte 20 Oeste 0 -- -- 43
2019-06-09 12:00:00 17.1 8 Oeste 22 Norte 0 -- -- 50
2019-06-09 11:00:00 15.1 10 Oeste 19 Oeste 0 -- -- 57
2019-06-09 10:00:00 13.1 11 Noroeste 19 Oeste 0 -- -- 65
2019-06-09 09:00:00 10.6 4 Oeste 7 Sur 0 -- -- 79
2019-06-09 08:00:00 6 4 Sudoeste 13 Oeste 0 -- -- 92
2019-06-09 07:00:00 4.4 7 Sudoeste 10 Oeste 0 -- -- 92
2019-06-09 06:00:00 6.1 2 Noroeste 11 Oeste 0 -- -- 90
2019-06-09 05:00:00 8 7 Oeste 10 Sur 0 -- -- 86
2019-06-09 04:00:00 9.1 7 Sur 12 Sudoeste 0 -- -- 83
2019-06-09 03:00:00 10.2 7 Sudoeste 12 Sur 0 -- -- 76
2019-06-09 02:00:00 11.1 4 Sudoeste 12 Oeste 0 -- -- 61
2019-06-09 01:00:00 12.4 9 Oeste 16 Noroeste 0 -- -- 55
2019-06-09 00:00:00 15.2 5 Sudoeste 8 Sudoeste 0 -- -- 47
2019-06-08 23:00:00 16.8 7 Oeste 17 Noroeste 0 -- -- 42
2019-06-08 22:00:00 19 12 Sudoeste 20 Sudoeste 0 -- -- 32
2019-06-08 21:00:00 20.6 12 Sudoeste 23 Sudoeste 0 -- -- 27
2019-06-08 20:00:00 22.2 18 Sudoeste 30 Sudoeste 0 -- -- 25
2019-06-08 19:00:00 22.9 18 Sudoeste 33 Sudoeste 0 -- -- 24
2019-06-08 18:00:00 23.6 17 Sudoeste 36 Sudoeste 0 -- -- 25
2019-06-08 17:00:00 22.7 15 Sudoeste 30 Sudoeste 0 -- -- 30
2019-06-08 16:00:00 23.1 10 Oeste 21 Oeste 0 -- -- 28
2019-06-08 15:00:00 22.1 9 Noroeste 19 Sudoeste 0 -- -- 29
2019-06-08 14:00:00 20.9 6 Norte 16 Nordeste 0 -- -- 32
2019-06-08 13:00:00 18.6 9 Norte 19 Nordeste 0 -- -- 36
2019-06-08 12:00:00 17.2 15 Nordeste 24 Nordeste 0 -- -- 42
2019-06-08 11:00:00 14.5 14 Nordeste 21 Nordeste 0 -- -- 53
2019-06-08 10:00:00 11.6 12 Nordeste 20 Nordeste 0 -- -- 61
2019-06-08 09:00:00 8.8 9 Nordeste 14 Nordeste 0 -- -- 72
2019-06-08 08:00:00 5.2 0 Calma 5 Nordeste 0 -- -- 85
2019-06-08 07:00:00 3.8 5 Nordeste 9 Este 0 -- -- 89
2019-06-08 06:00:00 3.8 0 Calma 5 Norte 0 -- -- 87
2019-06-08 05:00:00 3.1 4 Norte 6 Norte 0 -- -- 90
2019-06-08 04:00:00 3.8 5 Norte 6 Norte 0 -- -- 88
2019-06-08 03:00:00 4.6 2 Noroeste 5 Oeste 0 -- -- 83
2019-06-08 02:00:00 5.8 3 Sudoeste 9 Oeste 0 -- -- 77
2019-06-08 01:00:00 7.1 7 Oeste 10 Oeste 0 -- -- 75
2019-06-08 00:00:00 9.4 5 Oeste 6 Oeste 0 -- -- 59
2019-06-07 23:00:00 10.4 6 Noroeste 13 Noroeste 0 -- -- 55
2019-06-07 22:00:00 13.3 7 Norte 14 Noroeste 0 -- -- 43
2019-06-07 21:00:00 16.7 6 Noroeste 23 Noroeste 0 -- -- 35
2019-06-07 20:00:00 17.3 8 Noroeste 23 Oeste 0 -- -- 33
2019-06-07 19:00:00 17.4 10 Oeste 23 Oeste 0 -- -- 34
2019-06-07 18:00:00 17.5 9 Noroeste 24 Oeste 0 -- -- 34
2019-06-07 17:00:00 16.5 8 Noroeste 29 Noroeste 0 -- -- 37
2019-06-07 16:00:00 16.4 13 Oeste 27 Oeste 0 -- -- 37
2019-06-07 15:00:00 15.8 12 Oeste 44 Noroeste 0 -- -- 41
2019-06-07 14:00:00 14 12 Oeste 24 Oeste 0 -- -- 50
2019-06-07 13:00:00 13.2 14 Noroeste 26 Oeste 0 -- -- 47
2019-06-07 12:00:00 11.6 11 Noroeste 27 Oeste 0 -- -- 55
2019-06-07 11:00:00 10.8 9 Oeste 27 Oeste 0 -- -- 62
2019-06-07 10:00:00 9.2 16 Oeste 31 Oeste 0 -- -- 70
2019-06-07 09:00:00 8.3 13 Sudoeste 22 Sudoeste 0 -- -- 81
2019-06-07 08:00:00 7.1 8 Oeste 28 Oeste 0 -- -- 85
2019-06-07 07:00:00 7 15 Sudoeste 28 Sudoeste 0 -- -- 84
2019-06-07 06:00:00 6.8 13 Sudoeste 21 Sudoeste 0 -- -- 84
2019-06-07 05:00:00 5.8 11 Sudoeste 22 Oeste 0 -- -- 89
2019-06-07 04:00:00 6.2 11 Sudoeste 29 Sudoeste 0 -- -- 86
2019-06-07 03:00:00 6.3 9 Sudoeste 28 Oeste 0 -- -- 90
2019-06-07 02:00:00 7.6 18 Oeste 41 Oeste 0 -- -- 88
2019-06-07 01:00:00 7.8 23 Oeste 42 Oeste 0.4 -- -- 87
2019-06-07 00:00:00 8.4 16 Oeste 45 Oeste 2.6 -- -- 93
2019-06-06 23:00:00 11 26 Sudoeste 49 Sudoeste 0.8 -- -- 93
2019-06-06 22:00:00 11.6 31 Sudoeste 88 Sudoeste 0 -- -- 84
2019-06-06 21:00:00 14.6 40 Sudoeste 67 Sudoeste 0 -- -- 63
2019-06-06 20:00:00 16.6 44 Sudoeste 73 Sudoeste 0 -- -- 47
2019-06-06 19:00:00 17.7 51 Sudoeste 82 Sudoeste 0 -- -- 42
2019-06-06 18:00:00 18.5 48 Sudoeste 71 Sudoeste 0 -- -- 40
2019-06-06 17:00:00 18.6 36 Sudoeste 62 Sudoeste 0 -- -- 39
2019-06-06 16:00:00 17.8 40 Sudoeste 66 Sur 0 -- -- 37
2019-06-06 15:00:00 17 43 Sudoeste 70 Sudoeste 0 -- -- 36
2019-06-06 14:00:00 16.3 33 Sudoeste 53 Sudoeste 0 -- -- 35
2019-06-06 13:00:00 15.4 31 Sudoeste 47 Sudoeste 0 -- -- 38
2019-06-06 12:00:00 14.7 21 Sudoeste 34 Sudoeste 0 -- -- 43
2019-06-06 11:00:00 13.3 6 Oeste 17 Sudoeste 0 -- -- 53
2019-06-06 10:00:00 10.6 4 Sur 9 Este 0 -- -- 62
2019-06-06 09:00:00 6.8 3 Noroeste 5 Noroeste 0 -- -- 77
2019-06-06 08:00:00 2.2 2 Noroeste 6 Oeste 0 -- -- 86
2019-06-06 07:00:00 0.7 2 Oeste 10 Oeste 0 -- -- 87
2019-06-06 06:00:00 1.3 6 Oeste 8 Oeste 0 -- -- 86
2019-06-06 05:00:00 2.3 2 Oeste 11 Oeste 0 -- -- 83
2019-06-06 04:00:00 3.5 6 Oeste 8 Oeste 0 -- -- 79
2019-06-06 03:00:00 4.5 8 Oeste 10 Oeste 0 -- -- 76
2019-06-06 02:00:00 6.9 3 Sur 13 Noroeste 0 -- -- 68
2019-06-06 01:00:00 8.2 5 Oeste 8 Oeste 0 -- -- 62
2019-06-06 00:00:00 9.8 4 Oeste 9 Oeste 0 -- -- 56
2019-06-05 23:00:00 10.5 5 Oeste 15 Oeste 0 -- -- 53
2019-06-05 22:00:00 12.5 11 Noroeste 33 Noroeste 0 -- -- 46
2019-06-05 21:00:00 13.6 19 Noroeste 31 Oeste 0 -- -- 47
2019-06-05 20:00:00 15.4 18 Noroeste 42 Oeste 0 -- -- 40
2019-06-05 19:00:00 15.6 18 Oeste 37 Oeste 0 -- -- 41
2019-06-05 18:00:00 16.1 19 Oeste 35 Oeste 0 -- -- 33
2019-06-05 17:00:00 16.6 18 Oeste 40 Oeste 0 -- -- 32
2019-06-05 16:00:00 16.2 18 Noroeste 32 Noroeste 0 -- -- 37
2019-06-05 15:00:00 16 16 Oeste 33 Oeste 0 -- -- 36
2019-06-05 14:00:00 14.5 17 Noroeste 36 Noroeste 0 -- -- 43
2019-06-05 13:00:00 13.3 15 Noroeste 37 Oeste 0 -- -- 47
2019-06-05 12:00:00 13 22 Noroeste 40 Noroeste 0 -- -- 49
2019-06-05 11:00:00 12.1 22 Noroeste 39 Noroeste 0 -- -- 55
2019-06-05 10:00:00 10.2 20 Noroeste 37 Oeste 0 -- -- 64
2019-06-05 09:00:00 8.7 20 Oeste 32 Oeste 0 -- -- 73
2019-06-05 08:00:00 7.7 18 Oeste 31 Oeste 0 -- -- 82
2019-06-05 07:00:00 7.1 16 Oeste 29 Oeste 0 -- -- 83
2019-06-05 06:00:00 7.4 9 Oeste 27 Noroeste 0 -- -- 81
2019-06-05 05:00:00 8.3 14 Noroeste 22 Oeste 0 -- -- 78
2019-06-05 04:00:00 9 15 Noroeste 32 Oeste 0 -- -- 75
2019-06-05 03:00:00 9.9 20 Noroeste 41 Noroeste 0 -- -- 72
2019-06-05 02:00:00 10.9 17 Noroeste 34 Noroeste 0 -- -- 68
2019-06-05 01:00:00 11.9 23 Noroeste 35 Noroeste 0 -- -- 63
2019-06-05 00:00:00 13.4 17 Noroeste 34 Noroeste 0 -- -- 52
2019-06-04 23:00:00 14.2 18 Oeste 32 Noroeste 0 -- -- 57
2019-06-04 22:00:00 15.4 13 Noroeste 23 Oeste 0 -- -- 61
2019-06-04 21:00:00 16.1 16 Oeste 30 Oeste 0 -- -- 57
2019-06-04 20:00:00 17.1 19 Oeste 30 Noroeste 0 -- -- 55
2019-06-04 19:00:00 17.3 19 Oeste 37 Oeste 0 -- -- 60
2019-06-04 18:00:00 17.7 26 Noroeste 43 Sudoeste 0 -- -- 61
2019-06-04 17:00:00 22.1 24 Sudoeste 50 Sur 0 -- -- 45
2019-06-04 16:00:00 21.4 23 Sudoeste 36 Sudoeste 0 -- -- 46
2019-06-04 15:00:00 22.3 22 Sudoeste 39 Sudoeste 0 -- -- 43
2019-06-04 14:00:00 20.9 16 Sudoeste 31 Sudoeste 0 -- -- 49
2019-06-04 13:00:00 20.7 14 Sudoeste 26 Sudoeste 0 -- -- 51
2019-06-04 12:00:00 18.6 18 Oeste 27 Oeste 0 -- -- 56
2019-06-04 11:00:00 16.8 13 Oeste 23 Oeste 0 -- -- 61
2019-06-04 10:00:00 14.9 11 Oeste 19 Oeste 0 -- -- 71
2019-06-04 09:00:00 12.6 5 Oeste 9 Oeste 0 -- -- 83
2019-06-04 08:00:00 10.8 3 Noroeste 8 Oeste 0 -- -- 94
2019-06-04 07:00:00 10 4 Sur 7 Sudeste 0 -- -- 92
2019-06-04 06:00:00 10.3 2 Este 7 Noroeste 0 -- -- 92
2019-06-04 05:00:00 10.6 3 Sudoeste 9 Oeste 0 -- -- 88
2019-06-04 04:00:00 11.6 5 Oeste 9 Oeste 0 -- -- 86
2019-06-04 03:00:00 12.9 6 Sudoeste 7 Sur 0 -- -- 81
2019-06-04 02:00:00 14.7 3 Sudoeste 11 Oeste 0 -- -- 73
2019-06-04 01:00:00 16.2 5 Sudoeste 16 Oeste 0 -- -- 67
2019-06-04 00:00:00 18 6 Sudoeste 15 Oeste 0 -- -- 62
2019-06-03 23:00:00 19.9 4 Oeste 12 Sur 0 -- -- 48
2019-06-03 22:00:00 22.2 8 Sudoeste 28 Sudoeste 0 -- -- 35
2019-06-03 21:00:00 25.7 19 Sudoeste 47 Sudoeste 0 -- -- 25
2019-06-03 20:00:00 27.2 31 Sudoeste 54 Sudoeste 0 -- -- 19
2019-06-03 19:00:00 27.9 28 Sudoeste 53 Sudoeste 0 -- -- 17
2019-06-03 18:00:00 28.1 28 Sudoeste 47 Sudoeste 0 -- -- 17
2019-06-03 17:00:00 28 26 Sudoeste 48 Sudoeste 0 -- -- 19
2019-06-03 16:00:00 28.2 26 Sudoeste 43 Sudoeste 0 -- -- 16
2019-06-03 15:00:00 27.3 25 Sudoeste 39 Oeste 0 -- -- 19
2019-06-03 14:00:00 26.9 23 Sudoeste 42 Sudoeste 0 -- -- 22
2019-06-03 13:00:00 25.9 17 Sudoeste 29 Sudoeste 0 -- -- 22
2019-06-03 12:00:00 25 7 Sur 14 Sudoeste 0 -- -- 26
2019-06-03 11:00:00 22 4 Oeste 9 Noroeste 0 -- -- 29
2019-06-03 10:00:00 19.5 3 Sudeste 9 Sur 0 -- -- 47
2019-06-03 09:00:00 15.8 3 Sudoeste 6 Sudeste 0 -- -- 61
2019-06-03 08:00:00 12.3 4 Oeste 13 Oeste 0 -- -- 68
2019-06-03 07:00:00 12.4 7 Oeste 10 Oeste 0 -- -- 67
2019-06-03 06:00:00 13.2 4 Oeste 11 Sudoeste 0 -- -- 65
2019-06-03 05:00:00 13.6 3 Sudoeste 9 Oeste 0 -- -- 62
2019-06-03 04:00:00 14.5 4 Oeste 9 Oeste 0 -- -- 60
2019-06-03 03:00:00 15.8 4 Oeste 9 Oeste 0 -- -- 53
2019-06-03 02:00:00 17.1 8 Oeste 9 Oeste 0 -- -- 47
2019-06-03 01:00:00 18.9 3 Sudoeste 8 Sudoeste 0 -- -- 42
2019-06-03 00:00:00 20.6 5 Sudoeste 16 Oeste 0 -- -- 38
2019-06-02 23:00:00 21.7 10 Oeste 21 Noroeste 0 -- -- 35
2019-06-02 22:00:00 24.4 14 Noroeste 27 Oeste 0 -- -- 28
2019-06-02 21:00:00 26.4 15 Oeste 22 Oeste 0 -- -- 26
2019-06-02 20:00:00 28.2 16 Sudoeste 35 Sudoeste 0 -- -- 24
2019-06-02 19:00:00 29.2 19 Sudoeste 43 Sudoeste 0 -- -- 23
2019-06-02 18:00:00 29.6 24 Sudoeste 40 Sudoeste 0 -- -- 23
2019-06-02 17:00:00 29.7 23 Sudoeste 44 Sudoeste 0 -- -- 23
2019-06-02 16:00:00 29.9 23 Sudoeste 42 Sudoeste 0 -- -- 21
2019-06-02 15:00:00 30.2 20 Sudoeste 33 Sudoeste 0 -- -- 22
2019-06-02 14:00:00 29.6 18 Sudoeste 32 Sudoeste 0 -- -- 24
2019-06-02 13:00:00 29 14 Sudoeste 25 Sudoeste 0 -- -- 24
2019-06-02 12:00:00 28 8 Oeste 16 Oeste 0 -- -- 24
2019-06-02 11:00:00 26.1 6 Sudoeste 13 Sudoeste 0 -- -- 28
2019-06-02 10:00:00 22.2 5 Oeste 10 Oeste 0 -- -- 36
2019-06-02 09:00:00 16.1 5 Oeste 9 Sudoeste 0 -- -- 56
2019-06-02 08:00:00 11 4 Oeste 9 Oeste 0 -- -- 71
2019-06-02 07:00:00 10.2 6 Oeste 8 Noroeste 0 -- -- 73
2019-06-02 06:00:00 11.2 7 Oeste 10 Sudoeste 0 -- -- 70
2019-06-02 05:00:00 12.1 6 Oeste 10 Oeste 0 -- -- 68
2019-06-02 04:00:00 14.6 6 Oeste 13 Oeste 0 -- -- 57
2019-06-02 03:00:00 15.6 7 Oeste 10 Oeste 0 -- -- 53
2019-06-02 02:00:00 17.2 4 Sudoeste 10 Oeste 0 -- -- 47
2019-06-02 01:00:00 19.9 4 Sudoeste 14 Sudoeste 0 -- -- 41
2019-06-02 00:00:00 20.7 9 Sudoeste 13 Oeste 0 -- -- 37
2019-06-01 23:00:00 21.7 6 Sudoeste 12 Sudoeste 0 -- -- 36
2019-06-01 22:00:00 24.6 11 Sudoeste 28 Sudoeste 0 -- -- 31
2019-06-01 21:00:00 28.2 19 Sudoeste 31 Sudoeste 0 -- -- 25
2019-06-01 20:00:00 30.1 17 Sudoeste 31 Sur 0 -- -- 23
2019-06-01 19:00:00 30.8 19 Sudoeste 41 Sudoeste 0 -- -- 22
2019-06-01 18:00:00 31.3 17 Oeste 34 Sudoeste 0 -- -- 22
2019-06-01 17:00:00 31.9 15 Sudoeste 31 Oeste 0 -- -- 21
2019-06-01 16:00:00 31.4 13 Sudoeste 30 Sudoeste 0 -- -- 20
2019-06-01 15:00:00 30.8 15 Sudoeste 31 Sudoeste 0 -- -- 19
2019-06-01 14:00:00 30.4 18 Sur 27 Sudoeste 0 -- -- 18
2019-06-01 13:00:00 29.5 10 Sur 21 Sudoeste 0 -- -- 20
2019-06-01 12:00:00 28.3 15 Sudoeste 28 Oeste 0 -- -- 23
2019-06-01 11:00:00 26.6 16 Sudoeste 24 Sudoeste 0 -- -- 25
2019-06-01 10:00:00 23.5 6 Sudoeste 13 Sur 0 -- -- 32
2019-06-01 09:00:00 16.5 8 Sudoeste 11 Sudoeste 0 -- -- 49
2019-06-01 08:00:00 10.6 6 Noroeste 10 Sudoeste 0 -- -- 58
2019-06-01 07:00:00 9.3 7 Sudoeste 11 Oeste 0 -- -- 64
2019-06-01 06:00:00 10 8 Sudoeste 19 Oeste 0 -- -- 61
2019-06-01 05:00:00 9.3 13 Oeste 17 Noroeste 0 -- -- 61
2019-06-01 04:00:00 9.6 8 Oeste 10 Oeste 0 -- -- 62
2019-06-01 03:00:00 11 5 Oeste 9 Oeste 0 -- -- 59
2019-06-01 02:00:00 11.8 8 Sudoeste 13 Oeste 0 -- -- 60
2019-06-01 01:00:00 14.1 8 Oeste 14 Oeste 0 -- -- 49
2019-06-01 00:00:00 15.6 9 Oeste 13 Oeste 0 -- -- 46
2019-05-31 23:00:00 20.7 4 Noroeste 14 Nordeste 0 -- -- 31
2019-05-31 22:00:00 24.1 10 Nordeste 16 Nordeste 0 -- -- 25
2019-05-31 21:00:00 28 12 Nordeste 24 Nordeste 0 -- -- 20
2019-05-31 20:00:00 29.6 11 Nordeste 21 Nordeste 0 -- -- 18
2019-05-31 19:00:00 30.1 14 Nordeste 26 Nordeste 0 -- -- 19
2019-05-31 18:00:00 30.4 14 Nordeste 23 Nordeste 0 -- -- 19
2019-05-31 17:00:00 29.9 12 Este 23 Nordeste 0 -- -- 19
2019-05-31 16:00:00 29.9 10 Nordeste 22 Este 0 -- -- 18
2019-05-31 15:00:00 29.5 8 Este 21 Nordeste 0 -- -- 20
2019-05-31 14:00:00 28.9 8 Este 18 Nordeste 0 -- -- 21
2019-05-31 13:00:00 28 10 Nordeste 20 Nordeste 0 -- -- 25
2019-05-31 12:00:00 25.5 10 Nordeste 16 Nordeste 0 -- -- 27
2019-05-31 11:00:00 22.6 12 Nordeste 16 Nordeste 0 -- -- 34
2019-05-31 10:00:00 19.2 9 Nordeste 13 Este 0 -- -- 41
2019-05-31 09:00:00 14.8 4 Este 5 Este 0 -- -- 54
2019-05-31 08:00:00 8.3 0 Calma 8 Noroeste 0 -- -- 73
2019-05-31 07:00:00 6.7 3 Noroeste 7 Noroeste 0 -- -- 75
2019-05-31 06:00:00 7.5 4 Noroeste 9 Sudoeste 0 -- -- 72
2019-05-31 05:00:00 8.3 2 Noroeste 10 Noroeste 0 -- -- 69
2019-05-31 04:00:00 9.6 5 Oeste 10 Sudoeste 0 -- -- 63
2019-05-31 03:00:00 10.4 9 Oeste 14 Noroeste 0 -- -- 61
2019-05-31 02:00:00 13.9 9 Oeste 16 Oeste 0 -- -- 49
2019-05-31 01:00:00 15.6 3 Noroeste 21 Nordeste 0 -- -- 44
2019-05-31 00:00:00 17.8 12 Nordeste 15 Nordeste 0 -- -- 38
2019-05-30 23:00:00 19.7 5 Nordeste 13 Nordeste 0 -- -- 33
2019-05-30 22:00:00 21.6 10 Norte 19 Nordeste 0 -- -- 31
2019-05-30 21:00:00 26.3 14 Nordeste 26 Nordeste 0 -- -- 23
2019-05-30 20:00:00 27.5 13 Norte 28 Nordeste 0 -- -- 22
2019-05-30 19:00:00 27.9 18 Nordeste 35 Norte 0 -- -- 21
2019-05-30 18:00:00 28.1 20 Nordeste 35 Nordeste 0 -- -- 19
2019-05-30 17:00:00 28 22 Nordeste 37 Nordeste 0 -- -- 19
2019-05-30 16:00:00 27.4 21 Nordeste 43 Norte 0 -- -- 22
2019-05-30 15:00:00 26.7 20 Nordeste 36 Nordeste 0 -- -- 23
2019-05-30 14:00:00 25.8 19 Nordeste 34 Norte 0 -- -- 25
2019-05-30 13:00:00 24.1 18 Nordeste 32 Nordeste 0 -- -- 29
2019-05-30 12:00:00 21.7 15 Nordeste 27 Nordeste 0 -- -- 37
2019-05-30 11:00:00 18.8 13 Nordeste 22 Nordeste 0 -- -- 46
2019-05-30 10:00:00 15.2 11 Nordeste 21 Nordeste 0 -- -- 57
2019-05-30 09:00:00 12.5 13 Nordeste 20 Nordeste 0 -- -- 66
2019-05-30 08:00:00 7.3 0 Calma 4 Este 0 -- -- 81
2019-05-30 07:00:00 5.1 5 Norte 8 Norte 0 -- -- 86
2019-05-30 06:00:00 6.3 7 Oeste 9 Oeste 0 -- -- 80
2019-05-30 05:00:00 8.3 4 Norte 7 Este 0 -- -- 76
2019-05-30 04:00:00 9.6 6 Nordeste 14 Nordeste 0 -- -- 66
2019-05-30 03:00:00 10.7 11 Nordeste 14 Nordeste 0 -- -- 64
2019-05-30 02:00:00 11.8 8 Nordeste 15 Nordeste 0 -- -- 59
2019-05-30 01:00:00 13.2 8 Nordeste 13 Nordeste 0 -- -- 53
2019-05-30 00:00:00 14.4 3 Nordeste 9 Este 0 -- -- 49
2019-05-29 23:00:00 16.5 9 Nordeste 24 Nordeste 0 -- -- 44
2019-05-29 22:00:00 18.6 16 Nordeste 35 Nordeste 0 -- -- 39
2019-05-29 21:00:00 21.2 25 Nordeste 33 Nordeste 0 -- -- 33
2019-05-29 20:00:00 22.5 24 Nordeste 37 Nordeste 0 -- -- 31
2019-05-29 19:00:00 23 25 Nordeste 37 Nordeste 0 -- -- 31
2019-05-29 18:00:00 23.3 27 Nordeste 42 Nordeste 0 -- -- 31
2019-05-29 17:00:00 23.2 24 Nordeste 39 Nordeste 0 -- -- 32
2019-05-29 16:00:00 22.7 21 Nordeste 39 Nordeste 0 -- -- 33
2019-05-29 15:00:00 21.3 26 Nordeste 41 Nordeste 0 -- -- 35
2019-05-29 14:00:00 20.5 21 Nordeste 37 Este 0 -- -- 37
2019-05-29 13:00:00 18.8 23 Nordeste 40 Este 0 -- -- 40
2019-05-29 12:00:00 17.3 25 Nordeste 44 Nordeste 0 -- -- 41
2019-05-29 11:00:00 15.4 26 Nordeste 45 Nordeste 0 -- -- 45
2019-05-29 10:00:00 13.6 24 Nordeste 40 Nordeste 0 -- -- 50
2019-05-29 09:00:00 10.8 26 Nordeste 38 Nordeste 0 -- -- 59
2019-05-29 08:00:00 7.8 19 Nordeste 28 Nordeste 0 -- -- 69
2019-05-29 07:00:00 6.7 21 Nordeste 33 Nordeste 0 -- -- 73
2019-05-29 06:00:00 7.1 21 Nordeste 31 Nordeste 0 -- -- 71
2019-05-29 05:00:00 7.6 21 Nordeste 33 Nordeste 0 -- -- 68
2019-05-29 04:00:00 8.4 16 Nordeste 25 Nordeste 0 -- -- 63
2019-05-29 03:00:00 9.7 17 Nordeste 26 Nordeste 0 -- -- 55
2019-05-29 02:00:00 11 20 Nordeste 36 Nordeste 0 -- -- 51
2019-05-29 01:00:00 12.5 24 Nordeste 38 Nordeste 0 -- -- 53
2019-05-29 00:00:00 14.5 30 Nordeste 45 Nordeste 0 -- -- 49
2019-05-28 23:00:00 15.6 15 Nordeste 21 Nordeste 0 -- -- 41
2019-05-28 22:00:00 17.6 9 Nordeste 23 Nordeste 0 -- -- 35
2019-05-28 21:00:00 20.6 18 Nordeste 33 Nordeste 0 -- -- 30
2019-05-28 20:00:00 21.5 23 Nordeste 33 Nordeste 0 -- -- 29
2019-05-28 19:00:00 22.2 25 Nordeste 37 Nordeste 0 -- -- 28
2019-05-28 18:00:00 22.6 20 Nordeste 34 Nordeste 0 -- -- 28
2019-05-28 17:00:00 22.4 21 Nordeste 33 Nordeste 0 -- -- 28
2019-05-28 16:00:00 21.5 18 Nordeste 32 Nordeste 0 -- -- 28
2019-05-28 15:00:00 21.1 17 Nordeste 32 Nordeste 0 -- -- 29
2019-05-28 14:00:00 19.7 19 Nordeste 35 Nordeste 0 -- -- 34
2019-05-28 13:00:00 18 22 Nordeste 41 Nordeste 0 -- -- 37
2019-05-28 12:00:00 16.8 23 Nordeste 41 Nordeste 0 -- -- 40
2019-05-28 11:00:00 14.9 21 Nordeste 30 Nordeste 0 -- -- 51
2019-05-28 10:00:00 12.5 19 Nordeste 30 Nordeste 0 -- -- 64
2019-05-28 09:00:00 10.2 21 Nordeste 29 Nordeste 0 -- -- 73
2019-05-28 08:00:00 8.8 15 Nordeste 26 Nordeste 0 -- -- 80
2019-05-28 07:00:00 8.1 17 Nordeste 22 Nordeste 0 -- -- 83
2019-05-28 06:00:00 8.9 12 Nordeste 25 Nordeste 0 -- -- 79
2019-05-28 05:00:00 10.1 17 Nordeste 29 Nordeste 0 -- -- 75
2019-05-28 04:00:00 10.9 15 Nordeste 26 Nordeste 0 -- -- 77
2019-05-28 03:00:00 12.1 16 Nordeste 29 Norte 0 -- -- 73
2019-05-28 02:00:00 14.1 26 Nordeste 44 Nordeste 0 -- -- 66
2019-05-28 01:00:00 16.3 28 Nordeste 41 Nordeste 0 -- -- 57
2019-05-28 00:00:00 15.9 6 Oeste 10 Oeste 0 -- -- 56
2019-05-27 23:00:00 17.3 7 Noroeste 15 Noroeste 0 -- -- 51
2019-05-27 22:00:00 19.9 8 Nordeste 17 Norte 0 -- -- 41
2019-05-27 21:00:00 22.9 10 Nordeste 21 Norte 0 -- -- 35
2019-05-27 20:00:00 23.8 14 Norte 27 Norte 0 -- -- 33
2019-05-27 19:00:00 24.1 7 Norte 23 Norte 0 -- -- 33
2019-05-27 18:00:00 25.9 10 Norte 24 Norte 0 -- -- 32
2019-05-27 17:00:00 25.1 12 Norte 21 Noroeste 0 -- -- 32
2019-05-27 16:00:00 24.9 11 Noroeste 30 Norte 0 -- -- 32
2019-05-27 15:00:00 24.3 9 Norte 36 Norte 0 -- -- 35
2019-05-27 14:00:00 23.7 14 Nordeste 26 Nordeste 0 -- -- 37
2019-05-27 13:00:00 22.7 15 Nordeste 26 Nordeste 0 -- -- 37
2019-05-27 12:00:00 22.1 15 Nordeste 26 Nordeste 0 -- -- 39
2019-05-27 11:00:00 20.4 15 Nordeste 25 Este 0 -- -- 41
2019-05-27 10:00:00 16.7 12 Nordeste 18 Nordeste 0 -- -- 54
2019-05-27 09:00:00 13.1 6 Nordeste 9 Nordeste 0 -- -- 68
2019-05-27 08:00:00 8.5 0 Calma 12 Sudoeste 0 -- -- 82
2019-05-27 07:00:00 7.3 5 Oeste 11 Oeste 0 -- -- 84
2019-05-27 06:00:00 7.4 8 Oeste 10 Oeste 0 -- -- 84
2019-05-27 05:00:00 7.9 0 Calma 9 Oeste 0 -- -- 82
2019-05-27 04:00:00 8.9 5 Sudoeste 7 Sudoeste 0 -- -- 78
2019-05-27 03:00:00 9.3 6 Noroeste 10 Oeste 0 -- -- 77
2019-05-27 02:00:00 11 6 Oeste 13 Oeste 0 -- -- 70
2019-05-27 01:00:00 11.5 8 Oeste 10 Oeste 0 -- -- 67
2019-05-27 00:00:00 13.7 9 Oeste 12 Oeste 0 -- -- 59
2019-05-26 23:00:00 16.4 5 Sudoeste 11 Oeste 0 -- -- 50
2019-05-26 22:00:00 20.4 5 Nordeste 15 Nordeste 0 -- -- 40
2019-05-26 21:00:00 23.2 13 Nordeste 27 Nordeste 0 -- -- 33
2019-05-26 20:00:00 24.4 17 Nordeste 33 Nordeste 0 -- -- 31
2019-05-26 19:00:00 24.7 18 Nordeste 32 Nordeste 0 -- -- 31
2019-05-26 18:00:00 24.5 20 Nordeste 40 Nordeste 0 -- -- 32
2019-05-26 17:00:00 23.8 22 Nordeste 35 Nordeste 0 -- -- 34
2019-05-26 16:00:00 23.3 21 Nordeste 34 Nordeste 0 -- -- 35
2019-05-26 15:00:00 21.9 21 Nordeste 38 Nordeste 0 -- -- 38
2019-05-26 14:00:00 20.3 18 Nordeste 30 Nordeste 0 -- -- 43
2019-05-26 13:00:00 19 18 Nordeste 30 Nordeste 0 -- -- 45
2019-05-26 12:00:00 17.3 20 Nordeste 28 Nordeste 0 -- -- 49
2019-05-26 11:00:00 15.7 17 Nordeste 30 Nordeste 0 -- -- 54
2019-05-26 10:00:00 13.8 16 Nordeste 23 Nordeste 0 -- -- 59
2019-05-26 09:00:00 10.9 15 Nordeste 21 Nordeste 0 -- -- 68
2019-05-26 08:00:00 8.4 7 Nordeste 18 Nordeste 0 -- -- 77
2019-05-26 07:00:00 7.3 12 Nordeste 19 Nordeste 0 -- -- 78
2019-05-26 06:00:00 7.8 12 Nordeste 19 Nordeste 0 -- -- 76
2019-05-26 05:00:00 8.4 13 Nordeste 21 Nordeste 0 -- -- 74
2019-05-26 04:00:00 9.6 19 Nordeste 29 Nordeste 0 -- -- 70
2019-05-26 03:00:00 10.2 18 Nordeste 24 Nordeste 0 -- -- 67
2019-05-26 02:00:00 10.7 10 Nordeste 18 Nordeste 0 -- -- 64
2019-05-26 01:00:00 11.5 12 Nordeste 16 Nordeste 0 -- -- 59
2019-05-26 00:00:00 12 10 Nordeste 14 Nordeste 0 -- -- 56
2019-05-25 23:00:00 14.4 8 Nordeste 15 Nordeste 0 -- -- 47
2019-05-25 22:00:00 16.7 13 Nordeste 26 Nordeste 0 -- -- 39
2019-05-25 21:00:00 19.3 15 Nordeste 41 Nordeste 0 -- -- 37
2019-05-25 20:00:00 20.3 23 Nordeste 36 Nordeste 0 -- -- 35
2019-05-25 19:00:00 21 22 Nordeste 40 Nordeste 0 -- -- 32
2019-05-25 18:00:00 21.1 19 Nordeste 45 Nordeste 0 -- -- 32
2019-05-25 17:00:00 20.5 21 Norte 39 Nordeste 0 -- -- 36
2019-05-25 16:00:00 19.6 25 Nordeste 44 Nordeste 0 -- -- 38
2019-05-25 15:00:00 19 25 Nordeste 45 Nordeste 0 -- -- 39
2019-05-25 14:00:00 17.6 26 Nordeste 45 Nordeste 0 -- -- 44
2019-05-25 13:00:00 16.7 30 Nordeste 53 Nordeste 0 -- -- 44
2019-05-25 12:00:00 16 26 Nordeste 44 Nordeste 0 -- -- 48
2019-05-25 11:00:00 14.5 24 Nordeste 40 Este 0 -- -- 53
2019-05-25 10:00:00 12.3 27 Nordeste 38 Nordeste 0 -- -- 63
2019-05-25 09:00:00 10.1 14 Nordeste 20 Nordeste 0 -- -- 77
2019-05-25 08:00:00 8 12 Nordeste 20 Nordeste 0 -- -- 87
2019-05-25 07:00:00 6.6 11 Nordeste 16 Nordeste 0 -- -- 90
2019-05-25 06:00:00 6.4 6 Este 14 Nordeste 0 -- -- 90
2019-05-25 05:00:00 7.2 12 Nordeste 26 Nordeste 0 -- -- 87
2019-05-25 04:00:00 8 19 Nordeste 30 Nordeste 0 -- -- 84
2019-05-25 03:00:00 8.7 19 Nordeste 29 Nordeste 0 -- -- 77
2019-05-25 02:00:00 9.9 19 Nordeste 33 Este 0 -- -- 72
2019-05-25 01:00:00 11.2 22 Nordeste 32 Nordeste 0 -- -- 63
2019-05-25 00:00:00 12.8 22 Nordeste 34 Nordeste 0 -- -- 56
2019-05-24 23:00:00 14.4 19 Nordeste 32 Nordeste 0 -- -- 50
2019-05-24 22:00:00 15.9 15 Nordeste 26 Nordeste 0 -- -- 45
2019-05-24 21:00:00 18.1 18 Nordeste 33 Nordeste 0 -- -- 39
2019-05-24 20:00:00 20.1 20 Nordeste 35 Nordeste 0 -- -- 34
2019-05-24 19:00:00 20.7 23 Nordeste 46 Nordeste 0 -- -- 33
2019-05-24 18:00:00 21.1 26 Nordeste 44 Norte 0 -- -- 32
2019-05-24 17:00:00 20.9 26 Nordeste 40 Nordeste 0 -- -- 30
2019-05-24 16:00:00 20.5 23 Nordeste 36 Nordeste 0 -- -- 36
2019-05-24 15:00:00 19.8 21 Nordeste 39 Norte 0 -- -- 39
2019-05-24 14:00:00 18.6 23 Nordeste 42 Norte 0 -- -- 42
2019-05-24 13:00:00 17.5 21 Nordeste 37 Nordeste 0 -- -- 50
2019-05-24 12:00:00 15.9 25 Nordeste 44 Nordeste 0 -- -- 54
2019-05-24 11:00:00 13.3 23 Nordeste 34 Nordeste 0 -- -- 67
2019-05-24 10:00:00 12.3 19 Nordeste 32 Nordeste 0 -- -- 71
2019-05-24 09:00:00 10.8 24 Nordeste 35 Nordeste 0 -- -- 76
2019-05-24 08:00:00 10.7 20 Nordeste 29 Nordeste 0 -- -- 82
2019-05-24 07:00:00 10.8 17 Nordeste 23 Nordeste 0 -- -- 85
2019-05-24 06:00:00 10.5 13 Nordeste 19 Nordeste 0 -- -- 86
2019-05-24 05:00:00 10.6 7 Norte 12 Noroeste 0 -- -- 74
2019-05-24 04:00:00 12.3 9 Noroeste 15 Norte 0 -- -- 66
2019-05-24 03:00:00 12.2 6 Noroeste 10 Noroeste 0 -- -- 68
2019-05-24 02:00:00 12.3 6 Oeste 10 Oeste 0 -- -- 68
2019-05-24 01:00:00 13.9 3 Oeste 10 Oeste 0 -- -- 62
2019-05-24 00:00:00 15 4 Oeste 18 Noroeste 0 -- -- 62
2019-05-23 23:00:00 16.2 10 Noroeste 27 Oeste 0 -- -- 61
2019-05-23 22:00:00 18.4 15 Noroeste 29 Noroeste 0 -- -- 53
2019-05-23 21:00:00 20.9 17 Noroeste 28 Noroeste 0 -- -- 36
2019-05-23 20:00:00 22.9 19 Noroeste 32 Oeste 0 -- -- 29
2019-05-23 19:00:00 23.7 19 Oeste 34 Oeste 0 -- -- 31
2019-05-23 18:00:00 24.8 16 Oeste 37 Oeste 0 -- -- 30
2019-05-23 17:00:00 24.9 17 Oeste 35 Sudoeste 0 -- -- 36
2019-05-23 16:00:00 24.6 18 Oeste 31 Oeste 0 -- -- 38
2019-05-23 15:00:00 24 16 Oeste 28 Oeste 0 -- -- 39
2019-05-23 14:00:00 23.5 17 Sudoeste 27 Oeste 0 -- -- 40
2019-05-23 13:00:00 22.5 14 Oeste 23 Oeste 0 -- -- 40
2019-05-23 12:00:00 22.1 14 Oeste 23 Oeste 0 -- -- 39
2019-05-23 11:00:00 19.2 3 Sudeste 10 Sudoeste 0 -- -- 60
2019-05-23 10:00:00 14.6 0 Calma 7 Sudoeste 0 -- -- 77
2019-05-23 09:00:00 11.4 0 Calma 12 Sudoeste 0 -- -- 84
2019-05-23 08:00:00 9.1 5 Oeste 9 Oeste 0 -- -- 91
2019-05-23 07:00:00 9 6 Oeste 9 Oeste 0 -- -- 91
2019-05-23 06:00:00 10.2 5 Sudoeste 15 Oeste 0 -- -- 89
2019-05-23 05:00:00 11.2 6 Oeste 14 Sudoeste 0 -- -- 87
2019-05-23 04:00:00 12.4 10 Sur 14 Sudoeste 0 -- -- 84
2019-05-23 03:00:00 13.2 6 Sudoeste 15 Sudoeste 0 -- -- 79
2019-05-23 02:00:00 14.3 6 Sudoeste 15 Oeste 0 -- -- 76
2019-05-23 01:00:00 13.2 7 Oeste 15 Oeste 0 -- -- 65
2019-05-23 00:00:00 14.1 6 Sudoeste 10 Sudoeste 0 -- -- 56
2019-05-22 23:00:00 16 5 Sudoeste 11 Sudoeste 0 -- -- 51
2019-05-22 22:00:00 18.5 8 Sudoeste 17 Sudoeste 0 -- -- 43
2019-05-22 21:00:00 21.9 10 Sudoeste 22 Sudoeste 0 -- -- 33
2019-05-22 20:00:00 24.2 14 Sudoeste 25 Oeste 0 -- -- 31
2019-05-22 19:00:00 24.8 13 Sudoeste 30 Sudoeste 0 -- -- 29
2019-05-22 18:00:00 25.5 14 Sudoeste 28 Sudoeste 0 -- -- 29
2019-05-22 17:00:00 25.7 11 Oeste 32 Sudoeste 0 -- -- 28
2019-05-22 16:00:00 25.3 18 Sudoeste 31 Sudoeste 0 -- -- 29
2019-05-22 15:00:00 25 16 Sudoeste 27 Sudoeste 0 -- -- 27
2019-05-22 14:00:00 24.4 13 Sudoeste 37 Sudoeste 0 -- -- 30
2019-05-22 13:00:00 23.4 8 Sudeste 22 Sudoeste 0 -- -- 30
2019-05-22 12:00:00 21.9 5 Este 10 Este 0 -- -- 34
2019-05-22 11:00:00 18.1 5 Norte 9 Este 0 -- -- 42
2019-05-22 10:00:00 14.9 5 Nordeste 9 Este 0 -- -- 50
2019-05-22 09:00:00 10.5 3 Norte 5 Norte 0 -- -- 65
2019-05-22 08:00:00 5.4 2 Sudoeste 6 Sudoeste 0 -- -- 80
2019-05-22 07:00:00 4 0 Calma 15 Sudoeste 0 -- -- 84
2019-05-22 06:00:00 4.3 9 Sudoeste 12 Oeste 0 -- -- 84
2019-05-22 05:00:00 5 10 Oeste 14 Sudoeste 0 -- -- 84
2019-05-22 04:00:00 5.8 5 Oeste 13 Oeste 0 -- -- 78
2019-05-22 03:00:00 5.9 8 Sudoeste 13 Sudoeste 0 -- -- 79
2019-05-22 02:00:00 7 7 Oeste 10 Oeste 0 -- -- 75
2019-05-22 01:00:00 9.2 4 Noroeste 9 Norte 0 -- -- 67
2019-05-22 00:00:00 10.8 5 Oeste 10 Oeste 0 -- -- 60
2019-05-21 23:00:00 13.7 7 Oeste 10 Oeste 0 -- -- 51
2019-05-21 22:00:00 17.7 6 Norte 12 Norte 0 -- -- 38
2019-05-21 21:00:00 20.6 8 Norte 20 Norte 0 -- -- 32
2019-05-21 20:00:00 22.7 12 Norte 20 Norte 0 -- -- 30
2019-05-21 19:00:00 23.1 12 Norte 21 Norte 0 -- -- 29
2019-05-21 18:00:00 22.2 6 Norte 18 Oeste 0 -- -- 30
2019-05-21 17:00:00 22.4 8 Noroeste 24 Norte 0 -- -- 30
2019-05-21 16:00:00 22.1 7 Este 27 Nordeste 0 -- -- 31
2019-05-21 15:00:00 21.5 9 Este 25 Este 0 -- -- 34
2019-05-21 14:00:00 20.8 8 Este 19 Este 0 -- -- 36
2019-05-21 13:00:00 19.1 7 Nordeste 21 Este 0 -- -- 36
2019-05-21 12:00:00 18 8 Nordeste 18 Este 0 -- -- 37
2019-05-21 11:00:00 15.3 3 Noroeste 10 Norte 0 -- -- 52
2019-05-21 10:00:00 12.2 4 Oeste 9 Sudoeste 0 -- -- 66
2019-05-21 09:00:00 7.7 3 Oeste 9 Oeste 0 -- -- 80
2019-05-21 08:00:00 2.9 6 Oeste 14 Sudoeste 0 -- -- 89
2019-05-21 07:00:00 2.1 6 Oeste 8 Oeste 0 -- -- 88
2019-05-21 06:00:00 2.6 7 Oeste 9 Oeste 0 -- -- 86
2019-05-21 05:00:00 3.4 6 Sudoeste 10 Oeste 0 -- -- 83
2019-05-21 04:00:00 4.4 6 Oeste 11 Oeste 0 -- -- 79
2019-05-21 03:00:00 5.4 5 Sudoeste 12 Oeste 0 -- -- 77
2019-05-21 02:00:00 7.3 7 Sudoeste 11 Sudoeste 0 -- -- 68
2019-05-21 01:00:00 9.5 6 Sudoeste 7 Sudoeste 0 -- -- 59
2019-05-21 00:00:00 12.9 3 Noroeste 9 Noroeste 0 -- -- 46